createdAt,value
2018-10-02T00:02:05.410Z,88.14
2018-10-02T00:05:09.689Z,87.70
2018-10-02T00:08:13.703Z,87.94
2018-10-02T00:11:22.919Z,87.53
2018-10-02T00:14:28.662Z,87.40
2018-10-02T00:17:32.606Z,87.64
2018-10-02T00:20:36.572Z,87.41
2018-10-02T00:23:40.507Z,87.16
2018-10-02T00:26:44.447Z,87.15
2018-10-02T00:29:48.385Z,87.18
2018-10-02T00:32:52.329Z,87.09
2018-10-02T00:35:56.274Z,86.95
2018-10-02T00:39:00.541Z,87.92
2018-10-02T00:42:05.042Z,86.81
2018-10-02T00:45:08.974Z,86.48
2018-10-02T00:48:12.911Z,86.99
2018-10-02T00:51:16.845Z,87.89
2018-10-02T00:54:20.830Z,87.84
2018-10-02T00:57:24.770Z,87.47
2018-10-02T01:00:28.713Z,86.83
2018-10-02T01:03:32.762Z,87.73
2018-10-02T01:06:36.683Z,88.06
2018-10-02T01:09:40.641Z,88.85
2018-10-02T01:12:44.593Z,88.09
2018-10-02T01:15:48.540Z,87.72
2018-10-02T01:18:52.486Z,87.34
2018-10-02T01:21:56.433Z,87.73
2018-10-02T01:25:00.366Z,87.60
2018-10-02T01:28:04.638Z,87.78
2018-10-02T01:31:09.387Z,87.83
2018-10-02T01:34:13.335Z,87.40
2018-10-02T01:37:17.265Z,88.00
2018-10-02T01:40:21.269Z,88.05
2018-10-02T01:43:25.193Z,87.70
2018-10-02T01:46:29.110Z,88.26
2018-10-02T01:49:33.046Z,87.67
2018-10-02T01:52:37.341Z,87.39
2018-10-02T01:55:41.491Z,87.18
2018-10-02T01:58:45.431Z,87.69
2018-10-02T02:01:49.734Z,87.68
2018-10-02T02:04:53.711Z,88.69
2018-10-02T02:07:57.666Z,88.10
2018-10-02T02:11:01.622Z,87.76
2018-10-02T02:14:05.897Z,87.93
2018-10-02T02:17:09.838Z,87.20
2018-10-02T02:20:14.087Z,88.66
2018-10-02T02:23:18.027Z,88.32
2018-10-02T02:26:21.959Z,88.35
2018-10-02T02:29:25.903Z,88.48
2018-10-02T02:32:30.361Z,87.88
2018-10-02T02:35:34.302Z,87.91
2018-10-02T02:38:38.238Z,87.92
2018-10-02T02:41:42.198Z,88.98
2018-10-02T02:44:46.329Z,88.77
2018-10-02T02:47:55.554Z,88.56
2018-10-02T02:51:04.945Z,88.69
2018-10-02T02:54:09.079Z,89.10
2018-10-02T02:57:13.334Z,89.08
2018-10-02T03:00:17.273Z,89.46
2018-10-02T03:03:21.233Z,88.62
2018-10-02T03:06:25.378Z,88.20
2018-10-02T03:09:29.334Z,88.19
2018-10-02T03:12:33.269Z,88.81
2018-10-02T03:15:37.261Z,88.59
2018-10-02T03:18:41.388Z,88.08
2018-10-02T03:21:45.379Z,88.89
2018-10-02T03:24:49.479Z,89.02
2018-10-02T03:27:53.469Z,88.65
2018-10-02T03:30:57.401Z,88.46
2018-10-02T03:34:01.361Z,88.64
2018-10-02T03:37:05.631Z,88.01
2018-10-02T03:40:09.881Z,88.10
2018-10-02T03:43:14.009Z,88.32
2018-10-02T03:46:18.336Z,88.77
2018-10-02T03:49:22.614Z,87.92
2018-10-02T03:52:26.567Z,88.01
2018-10-02T03:55:30.498Z,88.12
2018-10-02T03:58:34.485Z,88.33
2018-10-02T04:01:38.612Z,88.15
2018-10-02T04:04:42.543Z,87.61
2018-10-02T04:07:46.486Z,88.13
2018-10-02T04:10:50.429Z,88.16
2018-10-02T04:13:54.368Z,88.13
2018-10-02T04:16:58.882Z,87.72
2018-10-02T04:20:03.150Z,87.36
2018-10-02T04:23:07.087Z,87.67
2018-10-02T04:26:11.257Z,88.09
2018-10-02T04:29:15.206Z,88.22
2018-10-02T04:32:19.179Z,88.28
2018-10-02T04:35:23.115Z,87.38
2018-10-02T04:38:27.065Z,87.71
2018-10-02T04:41:31.015Z,87.35
2018-10-02T04:44:34.953Z,87.81
2018-10-02T04:47:38.903Z,88.01
2018-10-02T04:50:42.814Z,87.92
2018-10-02T04:53:46.829Z,87.82
2018-10-02T04:56:50.782Z,88.15
2018-10-02T04:59:54.717Z,87.70
2018-10-02T05:02:58.673Z,87.28
2018-10-02T05:06:02.623Z,87.46
2018-10-02T05:09:08.234Z,87.44
2018-10-02T05:12:12.186Z,87.93
2018-10-02T05:15:16.111Z,87.94
2018-10-02T05:18:20.054Z,88.00
2018-10-02T05:21:24.006Z,87.94
2018-10-02T05:24:27.995Z,87.83
2018-10-02T05:27:32.468Z,87.68
2018-10-02T05:30:36.590Z,87.42
2018-10-02T05:33:40.619Z,87.81
2018-10-02T05:36:44.687Z,87.54
2018-10-02T05:39:48.644Z,87.40
2018-10-02T05:42:52.668Z,87.69
2018-10-02T05:45:56.703Z,88.40
2018-10-02T05:49:00.647Z,87.31
2018-10-02T05:52:04.575Z,87.84
2018-10-02T05:55:08.826Z,87.92
2018-10-02T05:58:12.764Z,87.73
2018-10-02T06:01:16.882Z,88.05
2018-10-02T06:04:20.818Z,88.20
2018-10-02T06:07:24.818Z,88.22
2018-10-02T06:10:28.757Z,88.18
2018-10-02T06:13:32.866Z,87.63
2018-10-02T06:16:36.822Z,88.65
2018-10-02T06:19:40.852Z,88.53
2018-10-02T06:22:44.793Z,87.92
2018-10-02T06:25:48.962Z,88.64
2018-10-02T06:28:52.886Z,88.09
2018-10-02T06:31:56.815Z,88.42
2018-10-02T06:35:00.743Z,88.13
2018-10-02T06:38:04.817Z,88.98
2018-10-02T06:41:08.887Z,88.56
2018-10-02T06:44:12.920Z,88.35
2018-10-02T06:47:16.841Z,88.61
2018-10-02T06:50:20.832Z,89.37
2018-10-02T06:53:24.947Z,88.72
2018-10-02T06:56:28.905Z,89.24
2018-10-02T06:59:33.019Z,88.76
2018-10-02T07:02:36.958Z,88.67
2018-10-02T07:05:41.356Z,88.87
2018-10-02T07:08:45.553Z,88.96
2018-10-02T07:11:49.622Z,89.06
2018-10-02T07:14:53.584Z,89.65
2018-10-02T07:17:57.666Z,90.16
2018-10-02T07:21:01.667Z,89.16
2018-10-02T07:24:06.058Z,89.56
2018-10-02T07:27:10.166Z,89.95
2018-10-02T07:30:14.463Z,90.05
2018-10-02T07:33:18.403Z,89.58
2018-10-02T07:36:22.355Z,89.68
2018-10-02T07:39:26.312Z,89.99
2018-10-02T07:42:30.331Z,90.26
2018-10-02T07:45:34.415Z,89.95
2018-10-02T07:48:38.710Z,90.68
2018-10-02T07:51:42.929Z,90.88
2018-10-02T07:54:46.927Z,91.19
2018-10-02T07:57:51.103Z,90.59
2018-10-02T08:00:55.171Z,90.24
2018-10-02T08:03:59.337Z,90.41
2018-10-02T08:07:03.592Z,90.02
2018-10-02T08:10:07.524Z,89.62
2018-10-02T08:13:11.860Z,89.76
2018-10-02T08:16:16.235Z,89.94
2018-10-02T08:19:20.520Z,89.81
2018-10-02T08:22:24.694Z,89.78
2018-10-02T08:25:28.731Z,90.08
2018-10-02T08:28:32.722Z,89.70
2018-10-02T08:31:36.763Z,89.58
2018-10-02T08:34:40.827Z,90.35
2018-10-02T08:37:44.911Z,90.68
2018-10-02T08:40:49.045Z,89.71
2018-10-02T08:43:53.277Z,90.25
2018-10-02T08:46:57.488Z,90.22
2018-10-02T08:50:01.533Z,90.35
2018-10-02T08:53:05.689Z,91.19
2018-10-02T08:56:09.694Z,90.59
2018-10-02T08:59:13.656Z,91.76
2018-10-02T09:02:17.597Z,91.65
2018-10-02T09:05:21.779Z,92.32
2018-10-02T09:08:25.724Z,91.78
2018-10-02T09:11:29.645Z,92.75
2018-10-02T09:14:34.146Z,92.74
2018-10-02T09:17:38.267Z,92.53
2018-10-02T09:20:42.227Z,92.46
2018-10-02T09:23:46.371Z,92.68
2018-10-02T09:26:50.823Z,92.78
2018-10-02T09:29:59.959Z,91.94
2018-10-02T09:33:09.422Z,92.90
2018-10-02T09:36:19.122Z,92.48
2018-10-02T09:39:28.741Z,92.82
2018-10-02T09:42:38.144Z,94.15
2018-10-02T09:45:42.307Z,93.66
2018-10-02T09:48:46.381Z,93.98
2018-10-02T09:51:50.531Z,93.70
2018-10-02T09:54:54.605Z,93.15
2018-10-02T09:57:58.808Z,93.41
2018-10-02T10:02:09.981Z,93.30
2018-10-02T10:05:14.115Z,93.35
2018-10-02T10:08:18.262Z,93.53
2018-10-02T10:11:22.184Z,93.35
2018-10-02T10:14:26.123Z,92.93
2018-10-02T10:17:30.469Z,93.64
2018-10-02T10:20:34.880Z,94.06
2018-10-02T10:23:38.843Z,93.34
2018-10-02T10:26:42.840Z,93.42
2018-10-02T10:29:48.131Z,94.28
2018-10-02T10:32:52.264Z,94.65
2018-10-02T10:35:56.311Z,94.72
2018-10-02T10:39:00.341Z,93.92
2018-10-02T10:42:04.475Z,95.04
2018-10-02T10:45:11.334Z,94.83
2018-10-02T10:48:15.884Z,94.51
2018-10-02T10:51:19.991Z,95.20
2018-10-02T10:54:23.994Z,94.92
2018-10-02T10:57:28.061Z,93.97
2018-10-02T11:00:32.373Z,94.34
2018-10-02T11:03:36.379Z,94.50
2018-10-02T11:06:41.983Z,94.63
2018-10-02T11:09:46.078Z,93.82
2018-10-02T11:12:50.147Z,94.52
2018-10-02T11:15:54.085Z,95.02
2018-10-02T11:18:58.010Z,94.49
2018-10-02T11:22:02.329Z,93.62
2018-10-02T11:25:07.249Z,94.84
2018-10-02T11:28:13.140Z,94.83
2018-10-02T11:31:18.377Z,94.88
2018-10-02T11:34:22.995Z,94.42
2018-10-02T11:37:29.014Z,95.61
2018-10-02T11:40:33.170Z,95.38
2018-10-02T11:43:38.921Z,95.16
2018-10-02T11:46:43.936Z,94.45
2018-10-02T11:49:48.244Z,94.80
2018-10-02T11:52:53.063Z,94.98
2018-10-02T11:55:57.336Z,94.85
2018-10-02T11:59:02.115Z,94.91
2018-10-02T12:02:06.825Z,94.83
2018-10-02T12:05:10.883Z,94.89
2018-10-02T12:08:16.337Z,94.79
2018-10-02T12:11:20.585Z,94.93
2018-10-02T12:14:25.135Z,95.29
2018-10-02T12:17:29.669Z,95.27
2018-10-02T12:20:33.869Z,95.10
2018-10-02T12:23:38.725Z,94.96
2018-10-02T12:26:42.867Z,95.75
2018-10-02T12:29:47.544Z,94.75
2018-10-02T12:32:52.777Z,94.53
2018-10-02T12:35:56.802Z,94.83
2018-10-02T12:39:01.778Z,95.15
2018-10-02T12:42:05.895Z,94.70
2018-10-02T12:45:09.912Z,94.89
2018-10-02T12:48:13.894Z,94.55
2018-10-02T12:51:18.128Z,95.36
2018-10-02T12:54:22.375Z,94.88
2018-10-02T12:57:26.290Z,94.88
2018-10-02T13:00:30.267Z,94.54
2018-10-02T13:03:34.266Z,94.95
2018-10-02T13:06:38.592Z,95.65
2018-10-02T13:09:42.586Z,95.00
2018-10-02T13:12:46.512Z,95.19
2018-10-02T13:15:50.479Z,95.89
2018-10-02T13:18:54.426Z,95.43
2018-10-02T13:21:58.619Z,95.45
2018-10-02T13:25:02.915Z,95.46
2018-10-02T13:28:06.868Z,95.73
2018-10-02T13:31:11.046Z,96.09
2018-10-02T13:34:15.196Z,95.24
2018-10-02T13:37:20.849Z,94.53
2018-10-02T13:40:24.923Z,95.08
2018-10-02T13:43:28.858Z,95.08
2018-10-02T13:46:32.835Z,94.96
2018-10-02T13:49:36.892Z,95.21
2018-10-02T13:52:41.188Z,95.78
2018-10-02T13:55:45.170Z,95.51
2018-10-02T13:58:49.159Z,95.34
2018-10-02T14:01:53.348Z,95.59
2018-10-02T14:04:57.381Z,94.55
2018-10-02T14:08:03.410Z,95.26
2018-10-02T14:11:07.591Z,95.32
2018-10-02T14:14:11.857Z,96.18
2018-10-02T14:17:16.655Z,96.37
2018-10-02T14:20:20.730Z,97.01
2018-10-02T14:23:24.745Z,96.28
2018-10-02T14:26:28.817Z,96.03
2018-10-02T14:29:33.303Z,96.83
2018-10-02T14:32:37.390Z,95.77
2018-10-02T14:35:41.719Z,96.60
2018-10-02T14:38:50.890Z,96.49
2018-10-02T14:42:07.895Z,95.44
2018-10-02T14:45:11.769Z,95.73
2018-10-02T14:48:15.649Z,95.45
2018-10-02T14:51:19.545Z,96.08
2018-10-02T14:54:23.478Z,96.25
2018-10-02T14:57:27.361Z,95.57
2018-10-02T15:00:31.577Z,95.23
2018-10-02T15:03:35.458Z,95.85
2018-10-02T15:06:39.349Z,95.66
2018-10-02T15:09:43.248Z,95.30
2018-10-02T15:12:47.130Z,95.00
2018-10-02T15:15:51.225Z,95.49
2018-10-02T15:18:55.110Z,95.64
2018-10-02T15:21:59.069Z,95.37
2018-10-02T15:25:02.987Z,95.63
2018-10-02T15:28:06.898Z,95.08
2018-10-02T15:31:11.148Z,95.24
2018-10-02T15:34:15.221Z,94.97
2018-10-02T15:37:19.515Z,94.18
2018-10-02T15:40:23.534Z,93.96
2018-10-02T15:43:27.419Z,92.92
2018-10-02T15:46:31.330Z,92.28
2018-10-02T15:49:35.332Z,91.31
2018-10-02T15:52:39.478Z,90.45
2018-10-02T15:55:44.112Z,91.44
2018-10-02T15:58:48.561Z,90.45
2018-10-02T16:01:52.957Z,90.13
2018-10-02T16:04:56.842Z,90.28
2018-10-02T16:08:00.749Z,91.01
2018-10-02T16:11:04.684Z,90.85
2018-10-02T16:14:08.781Z,90.69
2018-10-02T16:17:12.675Z,90.49
2018-10-02T16:20:16.569Z,90.05
2018-10-02T16:23:20.465Z,89.55
2018-10-02T16:26:24.352Z,90.19
2018-10-02T16:29:28.809Z,89.85
2018-10-02T16:32:32.713Z,90.00
2018-10-02T16:35:36.694Z,88.03
2018-10-02T16:38:40.591Z,87.82
2018-10-02T16:41:44.474Z,87.43
2018-10-02T16:44:48.415Z,86.00
2018-10-02T16:47:52.549Z,86.29
2018-10-02T16:50:56.418Z,85.71
2018-10-02T16:54:00.309Z,85.91
2018-10-02T16:57:04.768Z,84.78
2018-10-02T17:00:09.289Z,85.64
2018-10-02T17:03:13.421Z,85.48
2018-10-02T17:06:17.312Z,85.52
2018-10-02T17:09:21.518Z,85.87
2018-10-02T17:12:25.461Z,86.74
2018-10-02T17:15:30.065Z,86.02
2018-10-02T17:18:33.945Z,87.09
2018-10-02T17:21:37.934Z,87.18
2018-10-02T17:24:41.953Z,87.25
2018-10-02T17:27:45.835Z,86.47
2018-10-02T17:30:49.708Z,86.66
2018-10-02T17:33:53.926Z,87.24
2018-10-02T17:36:57.811Z,87.08
2018-10-02T17:40:01.919Z,86.74
2018-10-02T17:43:05.970Z,86.10
2018-10-02T17:46:10.204Z,86.45
2018-10-02T17:49:14.085Z,87.22
2018-10-02T17:52:18.482Z,85.52
2018-10-02T17:55:22.397Z,86.21
2018-10-02T17:58:26.282Z,85.60
2018-10-02T18:01:30.210Z,84.79
2018-10-02T18:04:34.229Z,85.66
2018-10-02T18:07:38.178Z,85.38
2018-10-02T18:10:42.181Z,85.10
2018-10-02T18:13:46.065Z,84.06
2018-10-02T18:16:49.946Z,84.38
2018-10-02T18:19:54.010Z,84.46
2018-10-02T18:22:58.281Z,84.45
2018-10-02T18:26:02.156Z,83.86
2018-10-02T18:29:06.050Z,84.54
2018-10-02T18:32:10.293Z,84.48
2018-10-02T18:35:14.186Z,84.01
2018-10-02T18:38:18.406Z,84.53
2018-10-02T18:41:22.397Z,83.08
2018-10-02T18:44:26.302Z,83.14
2018-10-02T18:47:30.383Z,83.72
2018-10-02T18:50:34.279Z,84.36
2018-10-02T18:53:38.422Z,84.31
2018-10-02T18:56:42.388Z,83.82
2018-10-02T18:59:46.458Z,83.42
2018-10-02T19:02:50.354Z,83.95
2018-10-02T19:05:54.311Z,83.98
2018-10-02T19:09:03.804Z,84.11
2018-10-02T19:12:11.854Z,84.23
2018-10-02T19:15:15.873Z,83.21
2018-10-02T19:18:20.006Z,83.99
2018-10-02T19:21:24.134Z,83.96
2018-10-02T19:24:27.992Z,82.58
2018-10-02T19:27:31.914Z,84.01
2018-10-02T19:30:41.090Z,84.74
2018-10-02T19:33:45.082Z,85.34
2018-10-02T19:36:49.165Z,85.39
2018-10-02T19:39:53.384Z,85.19
2018-10-02T19:42:57.248Z,86.15
2018-10-02T19:46:06.563Z,84.79
2018-10-02T19:49:10.450Z,85.72
2018-10-02T19:52:15.548Z,86.27
2018-10-02T19:55:19.648Z,86.41
2018-10-02T19:58:23.568Z,86.24
2018-10-02T20:01:27.666Z,86.74
2018-10-02T20:04:31.555Z,85.63
2018-10-02T20:07:35.438Z,85.31
2018-10-02T20:10:39.340Z,86.10
2018-10-02T20:13:43.914Z,86.74
2018-10-02T20:16:47.991Z,86.00
2018-10-02T20:19:51.868Z,86.69
2018-10-02T20:22:56.098Z,87.25
2018-10-02T20:26:00.470Z,87.34
2018-10-02T20:29:04.606Z,87.65
2018-10-02T20:32:08.510Z,87.67
2018-10-02T20:35:12.606Z,87.91
2018-10-02T20:38:16.511Z,88.19
2018-10-02T20:41:20.423Z,88.19
2018-10-02T20:44:24.325Z,88.94
2018-10-02T20:47:28.217Z,88.52
2018-10-02T20:50:32.129Z,88.16
2018-10-02T20:53:36.105Z,87.30
2018-10-02T20:56:40.063Z,87.06
2018-10-02T20:59:44.108Z,87.36
2018-10-02T21:02:47.981Z,86.21
2018-10-02T21:05:51.876Z,86.51
2018-10-02T21:08:55.815Z,86.85
2018-10-02T21:11:59.697Z,87.37
2018-10-02T21:15:03.934Z,87.41
2018-10-02T21:18:08.053Z,87.71
2018-10-02T21:21:12.127Z,87.57
2018-10-02T21:24:16.005Z,87.81
2018-10-02T21:27:19.882Z,87.11
2018-10-02T21:30:23.853Z,86.40
2018-10-02T21:33:27.820Z,87.09
2018-10-02T21:36:31.717Z,86.89
2018-10-02T21:39:35.828Z,86.78
2018-10-02T21:42:39.858Z,86.49
2018-10-02T21:45:43.762Z,86.50
2018-10-02T21:48:47.753Z,86.33
2018-10-02T21:51:51.970Z,86.12
2018-10-02T21:54:55.857Z,86.19
2018-10-02T21:57:59.749Z,87.30
2018-10-02T22:01:03.709Z,86.00
2018-10-02T22:04:07.734Z,87.07
2018-10-02T22:07:11.816Z,87.59
2018-10-02T22:10:15.898Z,87.51
2018-10-02T22:13:20.174Z,87.52
2018-10-02T22:16:24.057Z,87.92
2018-10-02T22:19:28.143Z,87.94
2018-10-02T22:22:32.316Z,88.53
2018-10-02T22:25:36.278Z,88.54
2018-10-02T22:28:40.188Z,88.67
2018-10-02T22:31:44.154Z,88.13
2018-10-02T22:34:48.417Z,88.40
2018-10-02T22:37:52.551Z,88.07
2018-10-02T22:40:56.880Z,88.44
2018-10-02T22:44:00.929Z,88.62
2018-10-02T22:47:05.326Z,88.66
2018-10-02T22:50:09.442Z,88.41
2018-10-02T22:53:13.556Z,88.88
2018-10-02T22:56:17.542Z,89.39
2018-10-02T22:59:21.603Z,89.42
2018-10-02T23:02:25.654Z,89.13
2018-10-02T23:05:29.615Z,90.15
2018-10-02T23:08:33.780Z,90.02
2018-10-02T23:11:38.127Z,89.75
2018-10-02T23:14:42.295Z,89.75
2018-10-02T23:17:46.240Z,89.52
2018-10-02T23:20:50.313Z,89.84
2018-10-02T23:23:54.281Z,88.70
2018-10-02T23:26:58.402Z,89.01
2018-10-02T23:30:02.633Z,88.32
2018-10-02T23:33:06.606Z,88.38
2018-10-02T23:36:17.327Z,88.22
2018-10-02T23:39:22.804Z,87.98
2018-10-02T23:42:28.433Z,87.64
2018-10-02T23:45:37.506Z,87.84
2018-10-02T23:48:45.943Z,88.71
2018-10-02T23:51:59.245Z,88.29
2018-10-02T23:55:03.243Z,88.71
2018-10-02T23:58:07.985Z,87.94
